createdAt,value
2022-11-02T00:03:32.520Z,10.37
2022-11-02T00:05:59.255Z,10.43
2022-11-02T00:08:25.970Z,10.47
2022-11-02T00:10:52.839Z,10.52
2022-11-02T00:13:19.565Z,10.55
2022-11-02T00:15:47.317Z,10.54
2022-11-02T00:18:15.040Z,10.67
2022-11-02T00:20:43.458Z,10.84
2022-11-02T00:23:13.531Z,10.78
2022-11-02T00:25:42.601Z,10.72
2022-11-02T00:28:09.682Z,10.82
2022-11-02T00:30:38.071Z,10.80
2022-11-02T00:33:05.269Z,10.67
2022-11-02T00:35:34.242Z,10.63
2022-11-02T00:38:01.059Z,10.55
2022-11-02T00:40:28.512Z,10.59
2022-11-02T00:42:55.178Z,10.46
2022-11-02T00:45:23.161Z,10.32
2022-11-02T00:47:50.512Z,10.50
2022-11-02T00:50:17.532Z,10.51
2022-11-02T00:52:44.321Z,10.73
2022-11-02T00:55:12.070Z,10.80
2022-11-02T00:57:39.833Z,10.86
2022-11-02T01:00:09.017Z,10.77
2022-11-02T01:02:36.056Z,10.60
2022-11-02T01:05:03.363Z,10.52
2022-11-02T01:07:30.211Z,10.51
2022-11-02T01:09:56.898Z,10.44
2022-11-02T01:12:24.565Z,10.57
2022-11-02T01:14:51.579Z,10.49
2022-11-02T01:17:19.783Z,10.47
2022-11-02T01:19:46.763Z,10.49
2022-11-02T01:22:13.577Z,10.37
2022-11-02T01:24:40.355Z,10.39
2022-11-02T01:27:07.206Z,10.29
2022-11-02T01:29:33.895Z,10.37
2022-11-02T01:32:00.600Z,10.39
2022-11-02T01:34:27.299Z,10.65
2022-11-02T01:36:54.041Z,10.55
2022-11-02T01:39:20.772Z,10.48
2022-11-02T01:41:51.693Z,10.45
2022-11-02T01:44:30.658Z,10.44
2022-11-02T01:47:07.421Z,10.60
2022-11-02T01:49:39.511Z,10.54
2022-11-02T01:52:11.072Z,10.55
2022-11-02T01:54:44.960Z,10.52
2022-11-02T01:57:15.340Z,10.48
2022-11-02T02:00:10.257Z,10.51
2022-11-02T02:02:43.413Z,10.60
2022-11-02T02:05:12.471Z,10.65
2022-11-02T02:07:40.632Z,10.64
2022-11-02T02:10:08.112Z,10.69
2022-11-02T02:12:38.453Z,10.73
2022-11-02T02:15:06.000Z,10.80
2022-11-02T02:17:37.140Z,10.82
2022-11-02T02:20:35.100Z,10.70
2022-11-02T02:23:43.662Z,10.75
2022-11-02T02:26:46.188Z,10.86
2022-11-02T02:29:18.894Z,10.89
2022-11-02T02:32:01.097Z,10.86
2022-11-02T02:34:51.676Z,10.84
2022-11-02T02:37:26.752Z,10.87
2022-11-02T02:40:11.342Z,10.78
2022-11-02T02:42:51.624Z,10.73
2022-11-02T02:45:21.281Z,10.68
2022-11-02T02:48:01.192Z,10.73
2022-11-02T02:50:30.229Z,10.70
2022-11-02T02:52:59.671Z,10.75
2022-11-02T02:55:32.741Z,10.64
2022-11-02T02:58:02.775Z,10.73
2022-11-02T03:00:33.659Z,10.80
2022-11-02T03:03:01.306Z,10.83
2022-11-02T03:05:28.271Z,10.84
2022-11-02T03:07:56.485Z,10.84
2022-11-02T03:10:41.697Z,10.85
2022-11-02T03:13:32.044Z,10.90
2022-11-02T03:16:07.542Z,10.92
2022-11-02T03:18:39.922Z,10.94
2022-11-02T03:21:31.248Z,10.89
2022-11-02T03:24:09.601Z,11.14
2022-11-02T03:26:45.151Z,11.06
2022-11-02T03:29:32.251Z,10.90
2022-11-02T03:32:04.682Z,10.88
2022-11-02T03:34:55.482Z,10.78
2022-11-02T03:37:28.200Z,10.76
2022-11-02T03:40:20.791Z,10.89
2022-11-02T03:42:50.707Z,10.69
2022-11-02T03:45:21.759Z,10.62
2022-11-02T03:47:54.451Z,10.50
2022-11-02T03:50:23.669Z,10.41
2022-11-02T03:53:01.558Z,10.37
2022-11-02T03:55:36.490Z,10.26
2022-11-02T03:58:04.047Z,10.20
2022-11-02T04:00:37.042Z,10.19
2022-11-02T04:03:07.147Z,10.15
2022-11-02T04:05:36.701Z,10.07
2022-11-02T04:08:22.802Z,10.10
2022-11-02T04:11:09.398Z,10.03
2022-11-02T04:13:55.659Z,9.94
2022-11-02T04:16:27.586Z,9.91
2022-11-02T04:19:13.541Z,9.91
2022-11-02T04:21:40.733Z,9.70
2022-11-02T04:24:27.222Z,9.67
2022-11-02T04:26:53.935Z,9.56
2022-11-02T04:29:20.636Z,9.49
2022-11-02T04:31:47.350Z,9.37
2022-11-02T04:34:14.043Z,9.31
2022-11-02T04:36:41.414Z,9.13
2022-11-02T04:39:08.101Z,9.22
2022-11-02T04:41:44.032Z,9.08
2022-11-02T04:44:13.257Z,9.02
2022-11-02T04:46:41.030Z,9.04
2022-11-02T04:49:08.977Z,8.96
2022-11-02T04:51:36.651Z,8.87
2022-11-02T04:54:04.165Z,8.77
2022-11-02T04:56:30.961Z,8.73
2022-11-02T04:58:59.510Z,8.74
2022-11-02T05:01:29.005Z,8.72
2022-11-02T05:03:56.609Z,8.72
2022-11-02T05:06:24.368Z,8.71
2022-11-02T05:08:51.292Z,8.66
2022-11-02T05:11:18.514Z,8.67
2022-11-02T05:13:45.604Z,8.62
2022-11-02T05:16:16.502Z,8.60
2022-11-02T05:18:43.701Z,8.83
2022-11-02T05:21:12.240Z,8.66
2022-11-02T05:23:39.605Z,8.56
2022-11-02T05:26:10.308Z,8.40
2022-11-02T05:28:37.051Z,8.60
2022-11-02T05:31:04.352Z,8.50
2022-11-02T05:33:31.818Z,8.35
2022-11-02T05:35:59.788Z,8.37
2022-11-02T05:38:27.754Z,8.31
2022-11-02T05:40:56.324Z,8.21
2022-11-02T05:43:23.568Z,8.18
2022-11-02T05:45:57.952Z,8.15
2022-11-02T05:48:26.255Z,8.06
2022-11-02T05:50:57.437Z,8.30
2022-11-02T05:53:25.667Z,8.40
2022-11-02T05:55:53.429Z,8.45
2022-11-02T05:58:20.075Z,8.64
2022-11-02T06:00:46.831Z,8.70
2022-11-02T06:03:13.493Z,8.82
2022-11-02T06:05:40.212Z,8.86
2022-11-02T06:08:06.956Z,8.96
2022-11-02T06:10:33.776Z,9.02
2022-11-02T06:13:02.441Z,8.95
2022-11-02T06:15:31.390Z,9.00
2022-11-02T06:17:58.121Z,9.22
2022-11-02T06:20:24.801Z,9.17
2022-11-02T06:22:51.574Z,9.41
2022-11-02T06:25:18.317Z,9.43
2022-11-02T06:27:56.646Z,9.39
2022-11-02T06:30:24.651Z,9.50
2022-11-02T06:32:53.571Z,9.59
2022-11-02T06:35:22.157Z,9.51
2022-11-02T06:37:49.236Z,9.56
2022-11-02T06:40:17.126Z,9.60
2022-11-02T06:42:56.545Z,9.57
2022-11-02T06:45:31.891Z,9.54
2022-11-02T06:47:58.587Z,9.58
2022-11-02T06:50:25.342Z,9.43
2022-11-02T06:52:52.575Z,9.61
2022-11-02T06:55:19.733Z,9.65
2022-11-02T06:57:46.456Z,9.52
2022-11-02T07:00:20.903Z,9.69
2022-11-02T07:03:05.157Z,9.67
2022-11-02T07:05:33.421Z,9.69
2022-11-02T07:08:00.152Z,9.60
2022-11-02T07:10:28.260Z,9.59
2022-11-02T07:12:56.351Z,9.64
2022-11-02T07:15:25.145Z,9.77
2022-11-02T07:17:52.061Z,9.65
2022-11-02T07:20:19.290Z,9.91
2022-11-02T07:22:56.370Z,9.86
2022-11-02T07:25:23.748Z,10.08
2022-11-02T07:27:50.656Z,10.22
2022-11-02T07:30:17.668Z,10.09
2022-11-02T07:32:45.656Z,10.43
2022-11-02T07:35:15.801Z,10.40
2022-11-02T07:37:43.101Z,10.48
2022-11-02T07:40:12.001Z,10.54
2022-11-02T07:42:46.684Z,10.52
2022-11-02T07:45:13.650Z,10.62
2022-11-02T07:47:46.000Z,10.61
2022-11-02T07:50:14.458Z,10.73
2022-11-02T07:52:52.239Z,10.71
2022-11-02T07:55:21.679Z,10.77
2022-11-02T07:58:03.170Z,10.74
2022-11-02T08:00:33.352Z,10.72
2022-11-02T08:03:01.976Z,10.79
2022-11-02T08:05:30.353Z,10.88
2022-11-02T08:08:04.843Z,10.88
2022-11-02T08:10:37.280Z,10.95
2022-11-02T08:13:08.837Z,11.07
2022-11-02T08:15:36.077Z,11.11
2022-11-02T08:18:07.618Z,11.18
2022-11-02T08:20:35.934Z,11.32
2022-11-02T08:23:03.165Z,11.48
2022-11-02T08:25:31.092Z,11.55
2022-11-02T08:27:59.584Z,11.71
2022-11-02T08:30:27.893Z,11.94
2022-11-02T08:32:57.105Z,12.14
2022-11-02T08:35:24.340Z,12.33
2022-11-02T08:37:55.227Z,12.46
2022-11-02T08:40:22.066Z,12.56
2022-11-02T08:45:17.541Z,12.38
2022-11-02T08:47:45.126Z,12.57
2022-11-02T08:50:11.911Z,12.80
2022-11-02T08:52:40.675Z,13.47
2022-11-02T08:55:11.133Z,13.65
2022-11-02T08:57:52.466Z,13.90
2022-11-02T09:00:22.046Z,14.12
2022-11-02T09:03:09.675Z,14.41
2022-11-02T09:05:42.884Z,14.52
2022-11-02T09:08:17.239Z,14.58
2022-11-02T09:10:45.593Z,14.62
2022-11-02T09:13:14.557Z,14.66
2022-11-02T09:15:42.214Z,14.63
2022-11-02T09:18:09.527Z,14.75
2022-11-02T09:20:36.937Z,14.97
2022-11-02T09:23:03.724Z,15.03
2022-11-02T09:25:30.542Z,15.42
2022-11-02T09:27:58.041Z,15.57
2022-11-02T09:30:26.050Z,15.29
2022-11-02T09:33:00.967Z,15.53
2022-11-02T09:35:30.809Z,15.39
2022-11-02T09:37:57.687Z,15.65
2022-11-02T09:40:26.694Z,15.75
2022-11-02T09:43:06.425Z,15.82
2022-11-02T09:45:37.225Z,15.53
2022-11-02T09:48:19.903Z,15.86
2022-11-02T09:51:14.791Z,16.12
2022-11-02T09:53:47.278Z,16.28
2022-11-02T09:56:19.960Z,16.48
2022-11-02T09:58:51.592Z,16.56
2022-11-02T10:01:29.465Z,16.31
2022-11-02T10:04:18.240Z,16.35
2022-11-02T10:06:56.511Z,16.33
2022-11-02T10:09:40.726Z,16.26
2022-11-02T10:12:18.195Z,16.53
2022-11-02T10:14:56.882Z,16.45
2022-11-02T10:17:28.983Z,16.48
2022-11-02T10:19:59.775Z,16.30
2022-11-02T10:22:37.772Z,16.08
2022-11-02T10:25:06.940Z,15.88
2022-11-02T10:27:38.163Z,15.78
2022-11-02T10:30:08.484Z,15.70
2022-11-02T10:32:38.916Z,15.70
2022-11-02T10:35:36.682Z,15.72
2022-11-02T10:38:49.783Z,15.73
2022-11-02T10:41:22.523Z,15.62
2022-11-02T10:44:28.392Z,15.79
2022-11-02T10:47:09.380Z,15.68
2022-11-02T10:49:45.269Z,15.67
2022-11-02T10:52:16.048Z,15.86
2022-11-02T10:54:43.011Z,15.99
2022-11-02T10:57:13.579Z,15.71
2022-11-02T10:59:40.969Z,15.74
2022-11-02T11:02:12.341Z,15.90
2022-11-02T11:04:42.852Z,15.96
2022-11-02T11:07:27.074Z,15.87
2022-11-02T11:09:56.392Z,16.01
2022-11-02T11:12:33.715Z,16.00
2022-11-02T11:20:42.831Z,15.69
2022-11-02T11:23:09.916Z,15.70
2022-11-02T11:25:36.733Z,15.53
2022-11-02T11:28:41.220Z,15.68
2022-11-02T11:31:12.379Z,15.71
2022-11-02T11:33:58.772Z,15.66
2022-11-02T11:36:31.691Z,15.70
2022-11-02T11:39:16.995Z,15.64
2022-11-02T11:41:43.886Z,15.39
2022-11-02T11:44:14.851Z,15.60
2022-11-02T11:46:54.046Z,15.46
2022-11-02T11:50:08.276Z,15.27
2022-11-02T11:52:36.101Z,15.21
2022-11-02T11:55:20.886Z,15.23
2022-11-02T11:58:04.569Z,15.12
2022-11-02T12:00:31.597Z,15.11
2022-11-02T12:03:07.124Z,15.17
2022-11-02T12:05:49.801Z,15.24
2022-11-02T12:08:28.839Z,15.28
2022-11-02T12:11:07.301Z,15.26
2022-11-02T12:14:13.696Z,15.34
2022-11-02T12:16:59.066Z,15.31
2022-11-02T12:19:44.650Z,15.41
2022-11-02T12:22:30.311Z,15.38
2022-11-02T12:24:57.076Z,15.44
2022-11-02T12:27:52.195Z,15.47
2022-11-02T12:30:22.112Z,15.51
2022-11-02T12:33:23.870Z,15.66
2022-11-02T12:36:12.101Z,15.66
2022-11-02T12:39:08.122Z,15.61
2022-11-02T12:42:05.260Z,15.63
2022-11-02T12:44:53.804Z,15.71
2022-11-02T12:47:47.252Z,15.68
2022-11-02T12:50:25.523Z,15.74
2022-11-02T12:52:58.920Z,15.75
2022-11-02T12:55:37.245Z,15.68
2022-11-02T12:58:08.651Z,15.69
2022-11-02T13:00:43.894Z,15.81
2022-11-02T13:03:16.678Z,15.84
2022-11-02T13:05:50.890Z,15.74
2022-11-02T13:08:32.853Z,15.87
2022-11-02T13:11:06.643Z,15.79
2022-11-02T13:13:41.983Z,15.86
2022-11-02T13:16:10.940Z,15.88
2022-11-02T13:18:50.506Z,15.78
2022-11-02T13:21:33.261Z,15.82
2022-11-02T13:24:00.926Z,15.89
2022-11-02T13:26:32.405Z,15.88
2022-11-02T13:29:19.644Z,15.88
2022-11-02T13:31:53.715Z,15.93
2022-11-02T13:34:32.431Z,15.91
2022-11-02T13:37:06.741Z,16.05
2022-11-02T13:39:41.237Z,16.03
2022-11-02T13:42:46.556Z,16.04
2022-11-02T13:45:34.842Z,16.02
2022-11-02T13:48:33.776Z,16.10
2022-11-02T13:51:06.581Z,16.37
2022-11-02T13:53:39.869Z,16.06
2022-11-02T13:56:29.902Z,15.95
2022-11-02T13:59:04.160Z,16.06
2022-11-02T14:01:37.847Z,15.86
2022-11-02T14:04:21.369Z,15.80
2022-11-02T14:06:54.325Z,15.66
2022-11-02T14:09:27.271Z,15.94
2022-11-02T14:12:13.586Z,15.86
2022-11-02T14:14:42.773Z,15.73
2022-11-02T14:17:19.230Z,15.78
2022-11-02T14:19:50.960Z,15.79
2022-11-02T14:22:19.129Z,15.79
2022-11-02T14:24:45.857Z,15.64
2022-11-02T14:27:15.972Z,15.50
2022-11-02T14:29:42.693Z,15.67
2022-11-02T14:32:24.229Z,15.51
2022-11-02T14:35:15.643Z,15.45
2022-11-02T14:38:25.673Z,15.31
2022-11-02T14:41:17.665Z,15.13
2022-11-02T14:44:49.571Z,14.94
2022-11-02T14:47:32.222Z,14.85
2022-11-02T14:50:07.311Z,14.82
2022-11-02T14:52:35.912Z,14.70
2022-11-02T14:55:09.223Z,14.75
2022-11-02T14:57:37.726Z,14.68
2022-11-02T15:00:16.888Z,14.64
2022-11-02T15:02:44.764Z,14.61
2022-11-02T15:05:23.720Z,14.61
2022-11-02T15:07:52.552Z,14.47
2022-11-02T15:10:19.196Z,14.27
2022-11-02T15:12:48.582Z,14.18
2022-11-02T15:15:33.446Z,14.03
2022-11-02T15:18:28.360Z,14.08
2022-11-02T15:21:13.134Z,13.92
2022-11-02T15:23:55.064Z,13.85
2022-11-02T15:26:42.537Z,13.74
2022-11-02T15:29:33.454Z,13.50
2022-11-02T15:32:02.159Z,13.51
2022-11-02T15:34:36.236Z,13.44
2022-11-02T15:37:04.119Z,13.35
2022-11-02T15:39:31.324Z,13.21
2022-11-02T15:42:04.443Z,13.00
2022-11-02T15:44:40.259Z,13.03
2022-11-02T15:47:44.655Z,12.77
2022-11-02T15:50:27.094Z,12.65
2022-11-02T15:53:22.210Z,12.60
2022-11-02T15:56:23.801Z,12.49
2022-11-02T15:59:11.137Z,12.18
2022-11-02T16:01:40.234Z,12.20
2022-11-02T16:04:09.099Z,12.07
2022-11-02T16:06:43.177Z,12.08
2022-11-02T16:09:28.663Z,12.02
2022-11-02T16:12:13.173Z,12.04
2022-11-02T16:14:41.071Z,11.82
2022-11-02T16:17:22.881Z,11.77
2022-11-02T16:19:50.673Z,11.78
2022-11-02T16:22:25.010Z,11.78
2022-11-02T16:24:54.356Z,11.87
2022-11-02T16:27:22.831Z,11.73
2022-11-02T16:29:50.935Z,11.75
2022-11-02T16:32:18.405Z,11.58
2022-11-02T16:34:45.516Z,11.47
2022-11-02T16:37:14.965Z,11.41
2022-11-02T16:39:46.779Z,11.29
2022-11-02T16:42:19.702Z,11.20
2022-11-02T16:44:59.066Z,11.06
2022-11-02T16:47:37.682Z,10.88
2022-11-02T16:50:17.980Z,10.76
2022-11-02T16:52:54.105Z,10.93
2022-11-02T16:55:37.816Z,10.87
2022-11-02T16:58:08.267Z,10.82
2022-11-02T17:00:36.045Z,10.81
2022-11-02T17:03:14.436Z,10.67
2022-11-02T17:05:43.075Z,10.73
2022-11-02T17:08:30.238Z,10.70
2022-11-02T17:10:59.454Z,10.49
2022-11-02T17:13:28.824Z,10.47
2022-11-02T17:15:57.019Z,10.53
2022-11-02T17:18:29.212Z,10.63
2022-11-02T17:21:13.998Z,10.63
2022-11-02T17:23:43.836Z,10.61
2022-11-02T17:26:22.890Z,10.70
2022-11-02T17:29:01.800Z,10.67
2022-11-02T17:31:38.618Z,10.69
2022-11-02T17:34:17.897Z,10.77
2022-11-02T17:36:47.731Z,10.86
2022-11-02T17:39:16.684Z,10.83
2022-11-02T17:42:03.533Z,10.85
2022-11-02T17:44:32.768Z,10.94
2022-11-02T17:46:59.611Z,10.98
2022-11-02T17:49:26.863Z,10.92
2022-11-02T17:51:57.902Z,10.84
2022-11-02T17:54:25.519Z,10.65
2022-11-02T17:56:52.607Z,10.80
2022-11-02T17:59:19.380Z,10.94
2022-11-02T18:01:46.904Z,10.73
2022-11-02T18:04:15.621Z,10.60
2022-11-02T18:06:43.039Z,10.81
2022-11-02T18:09:14.702Z,10.70
2022-11-02T18:11:42.020Z,10.20
2022-11-02T18:14:14.612Z,10.34
2022-11-02T18:16:42.180Z,10.39
2022-11-02T18:19:09.909Z,10.18
2022-11-02T18:21:37.756Z,10.18
2022-11-02T18:24:05.083Z,10.14
2022-11-02T18:26:32.289Z,9.94
2022-11-02T18:28:59.820Z,9.80
2022-11-02T18:31:27.321Z,9.82
2022-11-02T18:33:56.719Z,9.81
2022-11-02T18:36:25.089Z,9.71
2022-11-02T18:38:52.378Z,9.56
2022-11-02T18:41:35.165Z,9.53
2022-11-02T18:44:10.285Z,9.48
2022-11-02T18:46:42.425Z,9.38
2022-11-02T18:49:10.169Z,9.36
2022-11-02T18:51:37.791Z,9.34
2022-11-02T18:54:07.111Z,9.25
2022-11-02T18:56:34.862Z,9.25
2022-11-02T18:59:02.461Z,9.18
2022-11-02T19:01:29.985Z,9.02
2022-11-02T19:03:59.498Z,9.10
2022-11-02T19:06:47.942Z,9.07
2022-11-02T19:09:21.096Z,8.78
2022-11-02T19:12:00.918Z,8.84
2022-11-02T19:14:30.792Z,9.07
2022-11-02T19:16:58.271Z,8.57
2022-11-02T19:19:25.912Z,8.60
2022-11-02T19:21:54.805Z,8.53
2022-11-02T19:24:23.242Z,8.79
2022-11-02T19:26:51.546Z,8.52
2022-11-02T19:29:19.787Z,8.55
2022-11-02T19:31:47.839Z,8.41
2022-11-02T19:34:16.483Z,8.27
2022-11-02T19:36:46.788Z,8.28
2022-11-02T19:39:14.054Z,8.29
2022-11-02T19:41:41.609Z,8.25
2022-11-02T19:44:09.668Z,8.07
2022-11-02T19:46:37.000Z,8.34
2022-11-02T19:49:04.586Z,8.19
2022-11-02T19:51:33.451Z,8.07
2022-11-02T19:54:03.032Z,8.09
2022-11-02T19:56:33.327Z,8.06
2022-11-02T19:59:01.683Z,8.02
2022-11-02T20:01:34.716Z,8.19
2022-11-02T20:04:03.183Z,7.95
2022-11-02T20:06:37.513Z,7.99
2022-11-02T20:09:07.930Z,7.98
2022-11-02T20:11:37.799Z,7.98
2022-11-02T20:14:06.060Z,8.04
2022-11-02T20:16:33.198Z,8.03
2022-11-02T20:19:00.952Z,7.95
2022-11-02T20:21:34.612Z,7.97
2022-11-02T20:24:06.277Z,8.05
2022-11-02T20:26:35.527Z,7.94
2022-11-02T20:29:04.397Z,7.72
2022-11-02T20:31:36.297Z,8.20
2022-11-02T20:34:05.175Z,8.18
2022-11-02T20:36:33.177Z,8.22
2022-11-02T20:39:03.640Z,8.00
2022-11-02T20:41:31.556Z,7.98
2022-11-02T20:43:59.072Z,7.87
2022-11-02T20:46:38.303Z,7.71
2022-11-02T20:49:20.666Z,7.61
2022-11-02T20:51:51.423Z,7.50
2022-11-02T20:54:20.169Z,7.50
2022-11-02T20:56:48.218Z,7.30
2022-11-02T20:59:16.027Z,7.32
2022-11-02T21:01:43.297Z,7.45
2022-11-02T21:04:12.843Z,7.48
2022-11-02T21:06:45.592Z,7.34
2022-11-02T21:09:14.156Z,7.31
2022-11-02T21:11:59.961Z,7.26
2022-11-02T21:14:27.086Z,7.27
2022-11-02T21:16:54.035Z,7.13
2022-11-02T21:19:20.887Z,6.93
2022-11-02T21:21:48.069Z,6.91
2022-11-02T21:24:14.814Z,6.88
2022-11-02T21:26:41.715Z,6.84
2022-11-02T21:29:09.839Z,6.86
2022-11-02T21:31:37.071Z,6.72
2022-11-02T21:34:04.089Z,6.71
2022-11-02T21:36:31.073Z,6.74
2022-11-02T21:38:58.951Z,6.65
2022-11-02T21:41:28.919Z,6.57
2022-11-02T21:43:56.142Z,6.51
2022-11-02T21:46:25.740Z,6.47
2022-11-02T21:48:52.948Z,6.42
2022-11-02T21:51:22.453Z,6.44
2022-11-02T21:53:50.624Z,6.40
2022-11-02T21:56:20.458Z,6.42
2022-11-02T21:58:47.874Z,6.27
2022-11-02T22:01:34.651Z,6.34
2022-11-02T22:04:01.575Z,6.25
2022-11-02T22:06:31.576Z,6.17
2022-11-02T22:08:59.778Z,6.09
2022-11-02T22:11:27.739Z,6.10
2022-11-02T22:13:58.464Z,6.14
2022-11-02T22:16:31.906Z,6.34
2022-11-02T22:19:16.599Z,6.16
2022-11-02T22:21:45.065Z,6.12
2022-11-02T22:24:12.303Z,6.23
2022-11-02T22:26:39.758Z,6.27
2022-11-02T22:29:06.562Z,6.09
2022-11-02T22:31:36.007Z,5.96
2022-11-02T22:34:04.828Z,5.99
2022-11-02T22:36:33.754Z,6.07
2022-11-02T22:39:02.300Z,6.01
2022-11-02T22:41:34.372Z,5.99
2022-11-02T22:44:10.534Z,5.78
2022-11-02T22:46:40.017Z,5.77
2022-11-02T22:49:08.571Z,5.79
2022-11-02T22:51:40.895Z,5.77
2022-11-02T22:54:10.117Z,5.71
2022-11-02T22:56:36.851Z,5.47
2022-11-02T22:59:04.900Z,5.54
2022-11-02T23:01:32.726Z,5.51
2022-11-02T23:04:01.283Z,5.49
2022-11-02T23:06:28.820Z,5.56
2022-11-02T23:09:00.461Z,5.47
2022-11-02T23:11:33.831Z,5.39
2022-11-02T23:14:08.803Z,5.35
2022-11-02T23:16:37.869Z,5.31
2022-11-02T23:19:28.697Z,5.45
2022-11-02T23:22:23.003Z,5.37
2022-11-02T23:25:14.288Z,5.24
2022-11-02T23:28:04.285Z,5.26
2022-11-02T23:30:54.220Z,5.21
2022-11-02T23:33:22.446Z,5.20
2022-11-02T23:36:07.974Z,5.07
2022-11-02T23:38:53.104Z,5.16
2022-11-02T23:41:20.058Z,5.04
2022-11-02T23:43:47.251Z,5.03
2022-11-02T23:46:14.549Z,5.03
2022-11-02T23:48:42.349Z,4.98
2022-11-02T23:51:30.772Z,5.04
2022-11-02T23:54:16.337Z,4.87
2022-11-02T23:56:43.658Z,4.90
2022-11-02T23:59:16.630Z,4.86
